sensor_id;sensor_type;location;lat;lon;timestamp;P1;durP1;ratioP1;P2;durP2;ratioP2
37937;SDS011;23763;48.130;11.602;2022-08-19T00:00:34;8.10;;;7.60;;
37937;SDS011;23763;48.130;11.602;2022-08-19T00:03:01;7.75;;;7.25;;
37937;SDS011;23763;48.130;11.602;2022-08-19T00:05:27;8.43;;;7.82;;
37937;SDS011;23763;48.130;11.602;2022-08-19T00:07:53;7.53;;;7.13;;
37937;SDS011;23763;48.130;11.602;2022-08-19T00:10:19;8.55;;;8.10;;
37937;SDS011;23763;48.130;11.602;2022-08-19T00:12:45;8.18;;;7.78;;
37937;SDS011;23763;48.130;11.602;2022-08-19T00:15:13;8.43;;;7.93;;
37937;SDS011;23763;48.130;11.602;2022-08-19T00:17:42;8.70;;;8.07;;
37937;SDS011;23763;48.130;11.602;2022-08-19T00:20:12;8.40;;;7.82;;
37937;SDS011;23763;48.130;11.602;2022-08-19T00:22:42;8.75;;;8.25;;
37937;SDS011;23763;48.130;11.602;2022-08-19T00:25:09;8.70;;;8.13;;
37937;SDS011;23763;48.130;11.602;2022-08-19T00:27:35;8.63;;;8.00;;
37937;SDS011;23763;48.130;11.602;2022-08-19T00:30:03;9.23;;;8.57;;
37937;SDS011;23763;48.130;11.602;2022-08-19T00:32:30;9.18;;;8.57;;
37937;SDS011;23763;48.130;11.602;2022-08-19T00:34:56;8.95;;;8.35;;
37937;SDS011;23763;48.130;11.602;2022-08-19T00:37:22;9.27;;;8.68;;
37937;SDS011;23763;48.130;11.602;2022-08-19T00:39:50;9.32;;;8.73;;
37937;SDS011;23763;48.130;11.602;2022-08-19T00:42:16;9.07;;;8.40;;
37937;SDS011;23763;48.130;11.602;2022-08-19T00:44:43;9.10;;;8.50;;
37937;SDS011;23763;48.130;11.602;2022-08-19T00:47:09;9.40;;;8.80;;
37937;SDS011;23763;48.130;11.602;2022-08-19T00:49:37;9.63;;;9.02;;
37937;SDS011;23763;48.130;11.602;2022-08-19T00:52:32;10.00;;;9.30;;
37937;SDS011;23763;48.130;11.602;2022-08-19T00:55:00;9.48;;;8.70;;
37937;SDS011;23763;48.130;11.602;2022-08-19T00:57:34;9.85;;;9.15;;
37937;SDS011;23763;48.130;11.602;2022-08-19T01:00:05;9.90;;;9.10;;
37937;SDS011;23763;48.130;11.602;2022-08-19T01:02:35;9.98;;;9.38;;
37937;SDS011;23763;48.130;11.602;2022-08-19T01:05:02;10.65;;;9.85;;
37937;SDS011;23763;48.130;11.602;2022-08-19T01:07:31;10.60;;;9.80;;
37937;SDS011;23763;48.130;11.602;2022-08-19T01:09:59;11.02;;;10.20;;
37937;SDS011;23763;48.130;11.602;2022-08-19T01:12:25;10.77;;;9.98;;
37937;SDS011;23763;48.130;11.602;2022-08-19T01:14:51;10.40;;;9.52;;
37937;SDS011;23763;48.130;11.602;2022-08-19T01:17:18;10.43;;;9.73;;
37937;SDS011;23763;48.130;11.602;2022-08-19T01:19:45;11.05;;;10.20;;
37937;SDS011;23763;48.130;11.602;2022-08-19T01:24:52;11.45;;;10.65;;
37937;SDS011;23763;48.130;11.602;2022-08-19T01:27:17;11.52;;;10.73;;
37937;SDS011;23763;48.130;11.602;2022-08-19T01:29:44;11.65;;;10.93;;
37937;SDS011;23763;48.130;11.602;2022-08-19T01:32:15;11.38;;;10.57;;
37937;SDS011;23763;48.130;11.602;2022-08-19T01:34:42;11.65;;;10.75;;
37937;SDS011;23763;48.130;11.602;2022-08-19T01:37:12;11.80;;;11.00;;
37937;SDS011;23763;48.130;11.602;2022-08-19T01:39:40;11.30;;;10.50;;
37937;SDS011;23763;48.130;11.602;2022-08-19T01:42:07;11.50;;;10.70;;
37937;SDS011;23763;48.130;11.602;2022-08-19T01:44:35;10.98;;;10.18;;
37937;SDS011;23763;48.130;11.602;2022-08-19T01:47:01;10.82;;;10.02;;
37937;SDS011;23763;48.130;11.602;2022-08-19T01:49:28;10.98;;;10.27;;
37937;SDS011;23763;48.130;11.602;2022-08-19T01:51:54;11.27;;;10.48;;
37937;SDS011;23763;48.130;11.602;2022-08-19T01:54:21;11.05;;;10.25;;
37937;SDS011;23763;48.130;11.602;2022-08-19T01:56:48;10.95;;;10.18;;
37937;SDS011;23763;48.130;11.602;2022-08-19T01:59:21;10.60;;;9.90;;
37937;SDS011;23763;48.130;11.602;2022-08-19T02:01:49;10.98;;;10.13;;
37937;SDS011;23763;48.130;11.602;2022-08-19T02:04:14;10.52;;;9.75;;
37937;SDS011;23763;48.130;11.602;2022-08-19T02:06:40;10.98;;;10.27;;
37937;SDS011;23763;48.130;11.602;2022-08-19T02:09:06;11.25;;;10.45;;
37937;SDS011;23763;48.130;11.602;2022-08-19T02:11:34;10.20;;;9.48;;
37937;SDS011;23763;48.130;11.602;2022-08-19T02:14:02;10.40;;;9.70;;
37937;SDS011;23763;48.130;11.602;2022-08-19T02:16:30;9.93;;;9.32;;
37937;SDS011;23763;48.130;11.602;2022-08-19T02:18:57;11.57;;;10.73;;
37937;SDS011;23763;48.130;11.602;2022-08-19T02:21:25;10.10;;;9.50;;
37937;SDS011;23763;48.130;11.602;2022-08-19T02:23:51;10.73;;;9.93;;
37937;SDS011;23763;48.130;11.602;2022-08-19T02:26:17;10.20;;;9.52;;
37937;SDS011;23763;48.130;11.602;2022-08-19T02:28:44;10.65;;;9.95;;
37937;SDS011;23763;48.130;11.602;2022-08-19T02:31:11;10.57;;;9.88;;
37937;SDS011;23763;48.130;11.602;2022-08-19T02:33:42;10.30;;;9.68;;
37937;SDS011;23763;48.130;11.602;2022-08-19T02:36:09;10.57;;;9.68;;
37937;SDS011;23763;48.130;11.602;2022-08-19T02:38:36;9.95;;;9.35;;
37937;SDS011;23763;48.130;11.602;2022-08-19T02:41:04;9.77;;;9.18;;
37937;SDS011;23763;48.130;11.602;2022-08-19T02:43:34;9.60;;;9.02;;
37937;SDS011;23763;48.130;11.602;2022-08-19T02:46:38;10.95;;;10.25;;
37937;SDS011;23763;48.130;11.602;2022-08-19T02:48:59;9.55;;;8.95;;
37937;SDS011;23763;48.130;11.602;2022-08-19T02:51:31;9.55;;;8.88;;
37937;SDS011;23763;48.130;11.602;2022-08-19T02:54:04;10.13;;;9.52;;
37937;SDS011;23763;48.130;11.602;2022-08-19T02:56:33;9.90;;;9.30;;
37937;SDS011;23763;48.130;11.602;2022-08-19T02:59:00;9.60;;;9.00;;
37937;SDS011;23763;48.130;11.602;2022-08-19T03:01:28;9.80;;;9.20;;
37937;SDS011;23763;48.130;11.602;2022-08-19T03:03:58;10.30;;;9.60;;
37937;SDS011;23763;48.130;11.602;2022-08-19T03:06:26;9.80;;;9.00;;
37937;SDS011;23763;48.130;11.602;2022-08-19T03:08:53;9.63;;;9.02;;
37937;SDS011;23763;48.130;11.602;2022-08-19T03:11:20;10.20;;;9.60;;
37937;SDS011;23763;48.130;11.602;2022-08-19T03:13:46;10.43;;;9.82;;
37937;SDS011;23763;48.130;11.602;2022-08-19T03:16:15;9.93;;;9.20;;
37937;SDS011;23763;48.130;11.602;2022-08-19T03:18:42;10.20;;;9.50;;
37937;SDS011;23763;48.130;11.602;2022-08-19T03:21:08;10.75;;;9.77;;
37937;SDS011;23763;48.130;11.602;2022-08-19T03:23:34;10.68;;;9.98;;
37937;SDS011;23763;48.130;11.602;2022-08-19T03:26:03;10.10;;;9.50;;
37937;SDS011;23763;48.130;11.602;2022-08-19T03:28:30;9.55;;;9.00;;
37937;SDS011;23763;48.130;11.602;2022-08-19T03:30:58;9.85;;;9.20;;
37937;SDS011;23763;48.130;11.602;2022-08-19T03:33:26;10.07;;;9.48;;
37937;SDS011;23763;48.130;11.602;2022-08-19T03:36:08;9.82;;;9.25;;
37937;SDS011;23763;48.130;11.602;2022-08-19T03:38:38;9.70;;;9.10;;
37937;SDS011;23763;48.130;11.602;2022-08-19T03:41:12;10.55;;;9.63;;
37937;SDS011;23763;48.130;11.602;2022-08-19T03:43:40;11.02;;;10.10;;
37937;SDS011;23763;48.130;11.602;2022-08-19T03:46:08;10.18;;;9.57;;
37937;SDS011;23763;48.130;11.602;2022-08-19T03:48:36;10.25;;;9.50;;
37937;SDS011;23763;48.130;11.602;2022-08-19T03:51:03;9.57;;;8.88;;
37937;SDS011;23763;48.130;11.602;2022-08-19T03:53:30;10.25;;;9.55;;
37937;SDS011;23763;48.130;11.602;2022-08-19T03:55:58;10.50;;;9.73;;
37937;SDS011;23763;48.130;11.602;2022-08-19T03:58:28;9.80;;;9.20;;
37937;SDS011;23763;48.130;11.602;2022-08-19T04:00:55;9.82;;;9.13;;
37937;SDS011;23763;48.130;11.602;2022-08-19T04:03:22;10.68;;;9.93;;
37937;SDS011;23763;48.130;11.602;2022-08-19T04:05:49;9.95;;;9.35;;
37937;SDS011;23763;48.130;11.602;2022-08-19T04:08:15;10.02;;;9.32;;
37937;SDS011;23763;48.130;11.602;2022-08-19T04:10:43;9.93;;;9.23;;
37937;SDS011;23763;48.130;11.602;2022-08-19T04:13:10;10.82;;;10.13;;
37937;SDS011;23763;48.130;11.602;2022-08-19T04:15:38;9.80;;;9.20;;
37937;SDS011;23763;48.130;11.602;2022-08-19T04:18:08;10.43;;;9.80;;
37937;SDS011;23763;48.130;11.602;2022-08-19T04:20:38;11.13;;;10.32;;
37937;SDS011;23763;48.130;11.602;2022-08-19T04:23:14;11.57;;;10.77;;
37937;SDS011;23763;48.130;11.602;2022-08-19T04:25:41;10.82;;;10.00;;
37937;SDS011;23763;48.130;11.602;2022-08-19T04:28:10;11.10;;;10.25;;
37937;SDS011;23763;48.130;11.602;2022-08-19T04:30:47;11.20;;;10.30;;
37937;SDS011;23763;48.130;11.602;2022-08-19T04:33:16;10.57;;;9.88;;
37937;SDS011;23763;48.130;11.602;2022-08-19T04:35:45;10.57;;;9.88;;
37937;SDS011;23763;48.130;11.602;2022-08-19T04:38:14;11.52;;;10.63;;
37937;SDS011;23763;48.130;11.602;2022-08-19T04:40:41;11.65;;;10.77;;
37937;SDS011;23763;48.130;11.602;2022-08-19T04:43:27;10.48;;;9.80;;
37937;SDS011;23763;48.130;11.602;2022-08-19T04:45:52;11.63;;;10.65;;
37937;SDS011;23763;48.130;11.602;2022-08-19T04:48:18;11.63;;;10.73;;
37937;SDS011;23763;48.130;11.602;2022-08-19T04:50:51;12.65;;;11.68;;
37937;SDS011;23763;48.130;11.602;2022-08-19T04:53:22;12.10;;;11.20;;
37937;SDS011;23763;48.130;11.602;2022-08-19T04:55:57;12.65;;;11.75;;
37937;SDS011;23763;48.130;11.602;2022-08-19T04:58:24;12.43;;;11.52;;
37937;SDS011;23763;48.130;11.602;2022-08-19T05:00:51;11.93;;;11.07;;
37937;SDS011;23763;48.130;11.602;2022-08-19T05:03:17;12.90;;;12.00;;
37937;SDS011;23763;48.130;11.602;2022-08-19T05:05:44;12.27;;;11.38;;
37937;SDS011;23763;48.130;11.602;2022-08-19T05:08:13;12.20;;;11.30;;
37937;SDS011;23763;48.130;11.602;2022-08-19T05:10:44;11.85;;;11.05;;
37937;SDS011;23763;48.130;11.602;2022-08-19T05:13:15;11.93;;;11.02;;
37937;SDS011;23763;48.130;11.602;2022-08-19T05:15:43;12.98;;;11.95;;
37937;SDS011;23763;48.130;11.602;2022-08-19T05:18:09;11.70;;;10.90;;
37937;SDS011;23763;48.130;11.602;2022-08-19T05:20:53;11.40;;;10.60;;
37937;SDS011;23763;48.130;11.602;2022-08-19T05:23:37;13.02;;;11.95;;
37937;SDS011;23763;48.130;11.602;2022-08-19T05:26:03;11.80;;;10.90;;
37937;SDS011;23763;48.130;11.602;2022-08-19T05:28:29;11.60;;;10.80;;
37937;SDS011;23763;48.130;11.602;2022-08-19T05:30:55;12.90;;;11.90;;
37937;SDS011;23763;48.130;11.602;2022-08-19T05:33:21;11.20;;;10.40;;
37937;SDS011;23763;48.130;11.602;2022-08-19T05:35:47;12.07;;;11.18;;
37937;SDS011;23763;48.130;11.602;2022-08-19T05:38:14;11.73;;;10.82;;
37937;SDS011;23763;48.130;11.602;2022-08-19T05:40:44;11.98;;;11.07;;
37937;SDS011;23763;48.130;11.602;2022-08-19T05:43:12;11.07;;;10.27;;
37937;SDS011;23763;48.130;11.602;2022-08-19T05:45:41;11.10;;;10.00;;
37937;SDS011;23763;48.130;11.602;2022-08-19T05:48:07;11.90;;;10.90;;
37937;SDS011;23763;48.130;11.602;2022-08-19T05:50:36;11.00;;;10.20;;
37937;SDS011;23763;48.130;11.602;2022-08-19T05:53:03;12.05;;;11.10;;
37937;SDS011;23763;48.130;11.602;2022-08-19T05:55:29;10.73;;;10.02;;
37937;SDS011;23763;48.130;11.602;2022-08-19T05:57:55;11.18;;;10.38;;
37937;SDS011;23763;48.130;11.602;2022-08-19T06:00:21;11.10;;;10.15;;
37937;SDS011;23763;48.130;11.602;2022-08-19T06:02:48;12.13;;;11.23;;
37937;SDS011;23763;48.130;11.602;2022-08-19T06:05:13;12.45;;;11.52;;
37937;SDS011;23763;48.130;11.602;2022-08-19T06:07:39;13.73;;;12.57;;
37937;SDS011;23763;48.130;11.602;2022-08-19T06:10:06;12.85;;;11.85;;
37937;SDS011;23763;48.130;11.602;2022-08-19T06:12:34;14.15;;;12.85;;
37937;SDS011;23763;48.130;11.602;2022-08-19T06:15:02;14.32;;;13.02;;
37937;SDS011;23763;48.130;11.602;2022-08-19T06:17:32;14.57;;;13.45;;
37937;SDS011;23763;48.130;11.602;2022-08-19T06:19:59;14.23;;;13.13;;
37937;SDS011;23763;48.130;11.602;2022-08-19T06:22:26;14.48;;;13.38;;
37937;SDS011;23763;48.130;11.602;2022-08-19T06:24:52;15.15;;;13.95;;
37937;SDS011;23763;48.130;11.602;2022-08-19T06:27:19;15.98;;;14.57;;
37937;SDS011;23763;48.130;11.602;2022-08-19T06:29:45;15.38;;;14.18;;
37937;SDS011;23763;48.130;11.602;2022-08-19T06:32:11;15.45;;;14.05;;
37937;SDS011;23763;48.130;11.602;2022-08-19T06:34:40;15.27;;;14.07;;
37937;SDS011;23763;48.130;11.602;2022-08-19T06:37:06;16.55;;;15.30;;
37937;SDS011;23763;48.130;11.602;2022-08-19T06:39:36;15.73;;;14.25;;
37937;SDS011;23763;48.130;11.602;2022-08-19T06:42:04;17.08;;;15.68;;
37937;SDS011;23763;48.130;11.602;2022-08-19T06:44:33;16.45;;;14.88;;
37937;SDS011;23763;48.130;11.602;2022-08-19T06:47:05;16.17;;;14.57;;
37937;SDS011;23763;48.130;11.602;2022-08-19T06:49:32;16.35;;;14.98;;
37937;SDS011;23763;48.130;11.602;2022-08-19T06:51:59;16.92;;;15.55;;
37937;SDS011;23763;48.130;11.602;2022-08-19T06:54:25;16.95;;;15.60;;
37937;SDS011;23763;48.130;11.602;2022-08-19T06:56:53;15.88;;;14.68;;
37937;SDS011;23763;48.130;11.602;2022-08-19T06:59:20;16.50;;;15.18;;
37937;SDS011;23763;48.130;11.602;2022-08-19T07:01:51;17.00;;;15.68;;
37937;SDS011;23763;48.130;11.602;2022-08-19T07:04:19;16.67;;;15.20;;
37937;SDS011;23763;48.130;11.602;2022-08-19T07:06:47;17.23;;;15.40;;
37937;SDS011;23763;48.130;11.602;2022-08-19T07:09:15;16.52;;;15.13;;
37937;SDS011;23763;48.130;11.602;2022-08-19T07:11:46;18.00;;;16.52;;
37937;SDS011;23763;48.130;11.602;2022-08-19T07:14:14;16.73;;;15.25;;
37937;SDS011;23763;48.130;11.602;2022-08-19T07:16:43;16.80;;;15.40;;
37937;SDS011;23763;48.130;11.602;2022-08-19T07:19:10;17.25;;;15.65;;
37937;SDS011;23763;48.130;11.602;2022-08-19T07:21:37;16.35;;;14.82;;
37937;SDS011;23763;48.130;11.602;2022-08-19T07:24:03;17.15;;;15.65;;
37937;SDS011;23763;48.130;11.602;2022-08-19T07:26:30;17.80;;;16.30;;
37937;SDS011;23763;48.130;11.602;2022-08-19T07:28:58;17.13;;;15.80;;
37937;SDS011;23763;48.130;11.602;2022-08-19T07:31:27;18.00;;;16.50;;
37937;SDS011;23763;48.130;11.602;2022-08-19T07:33:54;17.48;;;16.08;;
37937;SDS011;23763;48.130;11.602;2022-08-19T07:36:22;17.48;;;16.08;;
37937;SDS011;23763;48.130;11.602;2022-08-19T07:38:51;17.08;;;15.57;;
37937;SDS011;23763;48.130;11.602;2022-08-19T07:41:23;18.20;;;16.63;;
37937;SDS011;23763;48.130;11.602;2022-08-19T07:43:53;19.48;;;17.58;;
37937;SDS011;23763;48.130;11.602;2022-08-19T07:46:20;18.80;;;17.10;;
37937;SDS011;23763;48.130;11.602;2022-08-19T07:48:46;18.80;;;17.05;;
37937;SDS011;23763;48.130;11.602;2022-08-19T07:51:18;19.27;;;17.58;;
37937;SDS011;23763;48.130;11.602;2022-08-19T07:53:45;18.75;;;17.00;;
37937;SDS011;23763;48.130;11.602;2022-08-19T07:56:13;20.10;;;18.35;;
37937;SDS011;23763;48.130;11.602;2022-08-19T07:58:40;20.48;;;18.67;;
37937;SDS011;23763;48.130;11.602;2022-08-19T08:01:10;21.17;;;19.33;;
37937;SDS011;23763;48.130;11.602;2022-08-19T08:03:38;20.77;;;18.80;;
37937;SDS011;23763;48.130;11.602;2022-08-19T08:06:22;21.27;;;19.38;;
37937;SDS011;23763;48.130;11.602;2022-08-19T08:09:07;21.17;;;19.38;;
37937;SDS011;23763;48.130;11.602;2022-08-19T08:11:46;21.25;;;19.33;;
37937;SDS011;23763;48.130;11.602;2022-08-19T08:14:14;21.50;;;19.45;;
37937;SDS011;23763;48.130;11.602;2022-08-19T08:16:48;20.10;;;18.20;;
37937;SDS011;23763;48.130;11.602;2022-08-19T08:19:15;20.92;;;18.83;;
37937;SDS011;23763;48.130;11.602;2022-08-19T08:21:41;19.83;;;18.02;;
37937;SDS011;23763;48.130;11.602;2022-08-19T08:24:07;19.40;;;17.65;;
37937;SDS011;23763;48.130;11.602;2022-08-19T08:26:33;18.70;;;17.10;;
37937;SDS011;23763;48.130;11.602;2022-08-19T08:28:59;18.35;;;16.65;;
37937;SDS011;23763;48.130;11.602;2022-08-19T08:31:24;20.17;;;18.33;;
37937;SDS011;23763;48.130;11.602;2022-08-19T08:33:50;20.10;;;18.30;;
37937;SDS011;23763;48.130;11.602;2022-08-19T08:36:17;20.02;;;18.23;;
37937;SDS011;23763;48.130;11.602;2022-08-19T08:38:43;20.08;;;18.08;;
37937;SDS011;23763;48.130;11.602;2022-08-19T08:43:44;19.50;;;17.60;;
37937;SDS011;23763;48.130;11.602;2022-08-19T08:46:13;20.85;;;18.92;;
37937;SDS011;23763;48.130;11.602;2022-08-19T08:48:59;20.50;;;18.60;;
37937;SDS011;23763;48.130;11.602;2022-08-19T08:51:38;20.67;;;18.60;;
37937;SDS011;23763;48.130;11.602;2022-08-19T08:54:10;20.00;;;17.98;;
37937;SDS011;23763;48.130;11.602;2022-08-19T08:56:38;19.95;;;18.08;;
37937;SDS011;23763;48.130;11.602;2022-08-19T08:59:28;20.27;;;18.15;;
37937;SDS011;23763;48.130;11.602;2022-08-19T09:01:57;20.95;;;18.92;;
37937;SDS011;23763;48.130;11.602;2022-08-19T09:04:23;20.05;;;18.10;;
37937;SDS011;23763;48.130;11.602;2022-08-19T09:09:40;21.15;;;19.08;;
37937;SDS011;23763;48.130;11.602;2022-08-19T09:12:14;19.80;;;17.85;;
37937;SDS011;23763;48.130;11.602;2022-08-19T09:15:07;20.88;;;18.95;;
37937;SDS011;23763;48.130;11.602;2022-08-19T09:17:36;21.38;;;19.17;;
37937;SDS011;23763;48.130;11.602;2022-08-19T09:22:39;19.50;;;17.60;;
37937;SDS011;23763;48.130;11.602;2022-08-19T09:25:09;19.77;;;17.98;;
37937;SDS011;23763;48.130;11.602;2022-08-19T09:27:38;20.45;;;18.50;;
37937;SDS011;23763;48.130;11.602;2022-08-19T09:30:06;19.83;;;18.08;;
37937;SDS011;23763;48.130;11.602;2022-08-19T09:32:33;19.45;;;17.75;;
37937;SDS011;23763;48.130;11.602;2022-08-19T09:34:59;19.45;;;17.70;;
37937;SDS011;23763;48.130;11.602;2022-08-19T09:37:26;19.98;;;18.17;;
37937;SDS011;23763;48.130;11.602;2022-08-19T09:39:53;19.50;;;17.80;;
37937;SDS011;23763;48.130;11.602;2022-08-19T09:42:19;19.80;;;18.05;;
37937;SDS011;23763;48.130;11.602;2022-08-19T09:44:45;19.10;;;17.42;;
37937;SDS011;23763;48.130;11.602;2022-08-19T09:47:12;19.35;;;17.88;;
37937;SDS011;23763;48.130;11.602;2022-08-19T09:49:39;19.42;;;17.67;;
37937;SDS011;23763;48.130;11.602;2022-08-19T09:52:07;19.83;;;18.02;;
37937;SDS011;23763;48.130;11.602;2022-08-19T09:54:34;18.52;;;16.95;;
37937;SDS011;23763;48.130;11.602;2022-08-19T09:56:59;18.40;;;16.80;;
37937;SDS011;23763;48.130;11.602;2022-08-19T09:59:26;18.65;;;16.95;;
37937;SDS011;23763;48.130;11.602;2022-08-19T10:01:52;19.58;;;17.92;;
37937;SDS011;23763;48.130;11.602;2022-08-19T10:04:18;20.95;;;18.95;;
37937;SDS011;23763;48.130;11.602;2022-08-19T10:06:46;19.85;;;18.15;;
37937;SDS011;23763;48.130;11.602;2022-08-19T10:09:14;18.58;;;16.88;;
37937;SDS011;23763;48.130;11.602;2022-08-19T10:11:42;19.77;;;18.17;;
37937;SDS011;23763;48.130;11.602;2022-08-19T10:14:13;17.58;;;16.17;;
37937;SDS011;23763;48.130;11.602;2022-08-19T10:16:39;18.13;;;16.52;;
37937;SDS011;23763;48.130;11.602;2022-08-19T10:19:07;18.98;;;17.38;;
37937;SDS011;23763;48.130;11.602;2022-08-19T10:21:34;18.10;;;16.70;;
37937;SDS011;23763;48.130;11.602;2022-08-19T10:24:01;18.52;;;16.92;;
37937;SDS011;23763;48.130;11.602;2022-08-19T10:26:30;18.30;;;16.75;;
37937;SDS011;23763;48.130;11.602;2022-08-19T10:28:59;17.40;;;15.90;;
37937;SDS011;23763;48.130;11.602;2022-08-19T10:31:29;16.88;;;15.48;;
37937;SDS011;23763;48.130;11.602;2022-08-19T10:33:57;17.65;;;16.15;;
37937;SDS011;23763;48.130;11.602;2022-08-19T10:36:27;16.98;;;15.68;;
37937;SDS011;23763;48.130;11.602;2022-08-19T10:38:56;17.08;;;15.68;;
37937;SDS011;23763;48.130;11.602;2022-08-19T10:41:25;17.75;;;16.15;;
37937;SDS011;23763;48.130;11.602;2022-08-19T10:43:54;17.23;;;15.70;;
37937;SDS011;23763;48.130;11.602;2022-08-19T10:46:22;16.08;;;14.80;;
37937;SDS011;23763;48.130;11.602;2022-08-19T10:48:49;15.88;;;14.55;;
37937;SDS011;23763;48.130;11.602;2022-08-19T10:51:15;16.42;;;15.02;;
37937;SDS011;23763;48.130;11.602;2022-08-19T10:54:13;16.45;;;15.18;;
37937;SDS011;23763;48.130;11.602;2022-08-19T10:56:39;16.17;;;14.88;;
37937;SDS011;23763;48.130;11.602;2022-08-19T10:59:18;15.77;;;14.52;;
37937;SDS011;23763;48.130;11.602;2022-08-19T11:01:58;14.48;;;13.38;;
37937;SDS011;23763;48.130;11.602;2022-08-19T11:04:26;15.27;;;13.98;;
37937;SDS011;23763;48.130;11.602;2022-08-19T11:06:52;14.93;;;13.73;;
37937;SDS011;23763;48.130;11.602;2022-08-19T11:09:21;14.98;;;13.77;;
37937;SDS011;23763;48.130;11.602;2022-08-19T11:11:54;14.68;;;13.45;;
37937;SDS011;23763;48.130;11.602;2022-08-19T11:14:21;14.32;;;13.15;;
37937;SDS011;23763;48.130;11.602;2022-08-19T11:16:51;14.40;;;13.20;;
37937;SDS011;23763;48.130;11.602;2022-08-19T11:19:20;14.65;;;13.55;;
37937;SDS011;23763;48.130;11.602;2022-08-19T11:21:48;16.13;;;14.73;;
37937;SDS011;23763;48.130;11.602;2022-08-19T11:24:16;14.40;;;13.30;;
37937;SDS011;23763;48.130;11.602;2022-08-19T11:26:47;14.27;;;13.13;;
37937;SDS011;23763;48.130;11.602;2022-08-19T11:29:15;13.15;;;12.15;;
37937;SDS011;23763;48.130;11.602;2022-08-19T11:31:43;12.50;;;11.60;;
37937;SDS011;23763;48.130;11.602;2022-08-19T11:34:12;13.48;;;12.43;;
37937;SDS011;23763;48.130;11.602;2022-08-19T11:36:49;14.18;;;13.00;;
37937;SDS011;23763;48.130;11.602;2022-08-19T11:39:18;14.70;;;13.38;;
37937;SDS011;23763;48.130;11.602;2022-08-19T11:41:45;15.20;;;14.00;;
37937;SDS011;23763;48.130;11.602;2022-08-19T11:44:11;13.93;;;12.82;;
37937;SDS011;23763;48.130;11.602;2022-08-19T11:46:39;14.23;;;13.13;;
37937;SDS011;23763;48.130;11.602;2022-08-19T11:49:05;13.63;;;12.63;;
37937;SDS011;23763;48.130;11.602;2022-08-19T11:51:32;12.80;;;11.80;;
37937;SDS011;23763;48.130;11.602;2022-08-19T11:53:59;12.52;;;11.63;;
37937;SDS011;23763;48.130;11.602;2022-08-19T11:56:25;10.82;;;10.02;;
37937;SDS011;23763;48.130;11.602;2022-08-19T11:58:52;10.07;;;9.48;;
37937;SDS011;23763;48.130;11.602;2022-08-19T12:01:18;9.50;;;8.90;;
37937;SDS011;23763;48.130;11.602;2022-08-19T12:03:47;10.02;;;9.35;;
37937;SDS011;23763;48.130;11.602;2022-08-19T12:06:16;8.70;;;8.20;;
37937;SDS011;23763;48.130;11.602;2022-08-19T12:08:44;8.57;;;8.07;;
37937;SDS011;23763;48.130;11.602;2022-08-19T12:11:10;8.45;;;7.85;;
37937;SDS011;23763;48.130;11.602;2022-08-19T12:13:40;8.57;;;8.07;;
37937;SDS011;23763;48.130;11.602;2022-08-19T12:16:11;7.68;;;7.28;;
37937;SDS011;23763;48.130;11.602;2022-08-19T12:18:41;7.40;;;7.10;;
37937;SDS011;23763;48.130;11.602;2022-08-19T12:21:11;7.40;;;7.00;;
37937;SDS011;23763;48.130;11.602;2022-08-19T12:23:43;6.70;;;6.40;;
37937;SDS011;23763;48.130;11.602;2022-08-19T12:26:12;6.65;;;6.35;;
37937;SDS011;23763;48.130;11.602;2022-08-19T12:28:37;6.32;;;6.13;;
37937;SDS011;23763;48.130;11.602;2022-08-19T12:31:03;6.70;;;6.40;;
37937;SDS011;23763;48.130;11.602;2022-08-19T12:33:29;6.80;;;6.50;;
37937;SDS011;23763;48.130;11.602;2022-08-19T12:36:00;6.97;;;6.68;;
37937;SDS011;23763;48.130;11.602;2022-08-19T12:38:28;6.30;;;6.00;;
37937;SDS011;23763;48.130;11.602;2022-08-19T12:40:54;6.18;;;5.88;;
37937;SDS011;23763;48.130;11.602;2022-08-19T12:43:19;6.25;;;6.05;;
37937;SDS011;23763;48.130;11.602;2022-08-19T12:45:45;6.72;;;6.43;;
37937;SDS011;23763;48.130;11.602;2022-08-19T12:48:11;6.30;;;6.00;;
37937;SDS011;23763;48.130;11.602;2022-08-19T12:50:40;6.57;;;6.28;;
37937;SDS011;23763;48.130;11.602;2022-08-19T12:53:07;6.47;;;6.28;;
37937;SDS011;23763;48.130;11.602;2022-08-19T12:55:33;6.88;;;6.57;;
37937;SDS011;23763;48.130;11.602;2022-08-19T12:57:59;6.35;;;6.15;;
37937;SDS011;23763;48.130;11.602;2022-08-19T13:00:26;6.30;;;6.10;;
37937;SDS011;23763;48.130;11.602;2022-08-19T13:02:52;6.38;;;6.05;;
37937;SDS011;23763;48.130;11.602;2022-08-19T13:05:23;6.82;;;6.38;;
37937;SDS011;23763;48.130;11.602;2022-08-19T13:07:51;6.82;;;6.20;;
37937;SDS011;23763;48.130;11.602;2022-08-19T13:10:21;7.88;;;7.50;;
37937;SDS011;23763;48.130;11.602;2022-08-19T13:12:57;6.85;;;6.55;;
37937;SDS011;23763;48.130;11.602;2022-08-19T13:15:35;6.90;;;6.60;;
37937;SDS011;23763;48.130;11.602;2022-08-19T13:18:02;7.00;;;6.47;;
37937;SDS011;23763;48.130;11.602;2022-08-19T13:20:28;7.13;;;6.72;;
37937;SDS011;23763;48.130;11.602;2022-08-19T13:22:54;7.38;;;6.97;;
37937;SDS011;23763;48.130;11.602;2022-08-19T13:25:22;6.55;;;6.35;;
37937;SDS011;23763;48.130;11.602;2022-08-19T13:27:48;7.22;;;6.93;;
37937;SDS011;23763;48.130;11.602;2022-08-19T13:30:16;7.28;;;6.88;;
37937;SDS011;23763;48.130;11.602;2022-08-19T13:33:01;7.18;;;6.80;;
37937;SDS011;23763;48.130;11.602;2022-08-19T13:35:37;6.63;;;6.32;;
37937;SDS011;23763;48.130;11.602;2022-08-19T13:38:05;7.20;;;6.90;;
37937;SDS011;23763;48.130;11.602;2022-08-19T13:40:31;6.72;;;6.43;;
37937;SDS011;23763;48.130;11.602;2022-08-19T13:43:00;7.10;;;6.70;;
37937;SDS011;23763;48.130;11.602;2022-08-19T13:45:28;6.82;;;6.43;;
37937;SDS011;23763;48.130;11.602;2022-08-19T13:47:55;6.68;;;6.38;;
37937;SDS011;23763;48.130;11.602;2022-08-19T13:50:30;6.65;;;6.35;;
37937;SDS011;23763;48.130;11.602;2022-08-19T13:52:57;7.20;;;6.80;;
37937;SDS011;23763;48.130;11.602;2022-08-19T13:55:23;6.70;;;6.40;;
37937;SDS011;23763;48.130;11.602;2022-08-19T13:57:53;6.80;;;6.50;;
37937;SDS011;23763;48.130;11.602;2022-08-19T14:00:21;6.90;;;6.60;;
37937;SDS011;23763;48.130;11.602;2022-08-19T14:02:51;7.32;;;7.00;;
37937;SDS011;23763;48.130;11.602;2022-08-19T14:05:19;7.60;;;7.20;;
37937;SDS011;23763;48.130;11.602;2022-08-19T14:07:45;7.60;;;7.20;;
37937;SDS011;23763;48.130;11.602;2022-08-19T14:10:13;7.40;;;7.10;;
37937;SDS011;23763;48.130;11.602;2022-08-19T14:12:39;7.88;;;7.47;;
37937;SDS011;23763;48.130;11.602;2022-08-19T14:15:05;7.43;;;7.03;;
37937;SDS011;23763;48.130;11.602;2022-08-19T14:17:33;8.00;;;7.43;;
37937;SDS011;23763;48.130;11.602;2022-08-19T14:20:02;8.13;;;7.72;;
37937;SDS011;23763;48.130;11.602;2022-08-19T14:22:33;8.25;;;7.85;;
37937;SDS011;23763;48.130;11.602;2022-08-19T14:25:04;7.78;;;7.38;;
37937;SDS011;23763;48.130;11.602;2022-08-19T14:27:35;8.05;;;7.65;;
37937;SDS011;23763;48.130;11.602;2022-08-19T14:30:05;8.07;;;7.47;;
37937;SDS011;23763;48.130;11.602;2022-08-19T14:32:33;7.70;;;7.35;;
37937;SDS011;23763;48.130;11.602;2022-08-19T14:34:59;7.90;;;7.50;;
37937;SDS011;23763;48.130;11.602;2022-08-19T14:37:26;7.30;;;6.90;;